Terminal Aerodrome Forecast
Issued by NWS

Home | Current Version | Previous Version | Text Only | Print | Product List | Glossary Off
Versions: 1 2 3 4 5 6 7 8 9 10 11 12 13 14 15 16 17 18

945
FTUS43 KUNR 151729
TAFGCC
TAF
KGCC 151729Z 1518/1618 24013G22KT P6SM BKN120
     FM160000 29008KT P6SM OVC100
     FM161200 34008KT 1SM -SN SCT005 OVC010=

USA.gov is the U.S. government's official web portal to all federal, state and local government web resources and services.